sensor_id;sensor_type;location;lat;lon;timestamp;temperature;humidity
23731;DHT22;12046;44.702;10.622;2022-11-03T00:02:06;15.60;99.90
23731;DHT22;12046;44.702;10.622;2022-11-03T00:04:32;15.60;99.90
23731;DHT22;12046;44.702;10.622;2022-11-03T00:06:58;15.70;99.90
23731;DHT22;12046;44.702;10.622;2022-11-03T00:09:26;15.70;99.90
23731;DHT22;12046;44.702;10.622;2022-11-03T00:11:52;15.70;99.90
23731;DHT22;12046;44.702;10.622;2022-11-03T00:14:18;15.70;99.90
23731;DHT22;12046;44.702;10.622;2022-11-03T00:16:45;15.70;99.90
23731;DHT22;12046;44.702;10.622;2022-11-03T00:19:11;15.60;99.90
23731;DHT22;12046;44.702;10.622;2022-11-03T00:21:39;15.70;99.90
23731;DHT22;12046;44.702;10.622;2022-11-03T00:24:06;15.70;99.90
23731;DHT22;12046;44.702;10.622;2022-11-03T00:26:33;15.60;99.90
23731;DHT22;12046;44.702;10.622;2022-11-03T00:29:08;15.60;99.90
23731;DHT22;12046;44.702;10.622;2022-11-03T00:31:36;15.60;99.90
23731;DHT22;12046;44.702;10.622;2022-11-03T00:34:03;15.60;99.90
23731;DHT22;12046;44.702;10.622;2022-11-03T00:39:59;15.70;99.90
23731;DHT22;12046;44.702;10.622;2022-11-03T00:42:25;15.60;99.90
23731;DHT22;12046;44.702;10.622;2022-11-03T00:44:51;15.60;99.90
23731;DHT22;12046;44.702;10.622;2022-11-03T00:55:17;15.70;99.90
23731;DHT22;12046;44.702;10.622;2022-11-03T00:57:43;15.60;99.90
23731;DHT22;12046;44.702;10.622;2022-11-03T01:00:10;15.60;99.90
23731;DHT22;12046;44.702;10.622;2022-11-03T01:02:37;15.60;99.90
23731;DHT22;12046;44.702;10.622;2022-11-03T01:05:03;15.60;99.90
23731;DHT22;12046;44.702;10.622;2022-11-03T01:07:48;15.60;99.90
23731;DHT22;12046;44.702;10.622;2022-11-03T01:10:14;15.60;99.90
23731;DHT22;12046;44.702;10.622;2022-11-03T01:12:42;15.60;99.90
23731;DHT22;12046;44.702;10.622;2022-11-03T01:15:09;15.60;99.90
23731;DHT22;12046;44.702;10.622;2022-11-03T01:17:34;15.60;99.90
23731;DHT22;12046;44.702;10.622;2022-11-03T01:20:00;15.50;99.90
23731;DHT22;12046;44.702;10.622;2022-11-03T01:22:36;15.50;99.90
23731;DHT22;12046;44.702;10.622;2022-11-03T01:25:02;15.50;99.90
23731;DHT22;12046;44.702;10.622;2022-11-03T01:27:27;15.50;99.90
23731;DHT22;12046;44.702;10.622;2022-11-03T01:29:56;15.50;99.90
23731;DHT22;12046;44.702;10.622;2022-11-03T01:32:22;15.40;99.90
23731;DHT22;12046;44.702;10.622;2022-11-03T01:34:48;15.40;99.90
23731;DHT22;12046;44.702;10.622;2022-11-03T01:37:14;15.50;99.90
23731;DHT22;12046;44.702;10.622;2022-11-03T01:39:40;15.50;99.90
23731;DHT22;12046;44.702;10.622;2022-11-03T01:42:06;15.40;99.90
23731;DHT22;12046;44.702;10.622;2022-11-03T01:44:36;15.50;99.90
23731;DHT22;12046;44.702;10.622;2022-11-03T01:47:25;15.40;99.90
23731;DHT22;12046;44.702;10.622;2022-11-03T01:50:14;15.50;99.90
23731;DHT22;12046;44.702;10.622;2022-11-03T01:52:59;15.50;99.90
23731;DHT22;12046;44.702;10.622;2022-11-03T01:56:00;15.50;99.90
23731;DHT22;12046;44.702;10.622;2022-11-03T01:58:30;15.50;99.90
23731;DHT22;12046;44.702;10.622;2022-11-03T02:00:57;15.50;99.90
23731;DHT22;12046;44.702;10.622;2022-11-03T02:03:26;15.40;99.90
23731;DHT22;12046;44.702;10.622;2022-11-03T02:05:54;15.50;99.90
23731;DHT22;12046;44.702;10.622;2022-11-03T02:08:50;15.40;99.90
23731;DHT22;12046;44.702;10.622;2022-11-03T02:11:17;15.40;99.90
23731;DHT22;12046;44.702;10.622;2022-11-03T02:14:01;15.40;99.90
23731;DHT22;12046;44.702;10.622;2022-11-03T02:16:30;15.40;99.90
23731;DHT22;12046;44.702;10.622;2022-11-03T02:18:58;15.30;99.90
23731;DHT22;12046;44.702;10.622;2022-11-03T02:26:23;15.30;99.90
23731;DHT22;12046;44.702;10.622;2022-11-03T02:28:49;15.30;99.90
23731;DHT22;12046;44.702;10.622;2022-11-03T02:34:12;15.20;99.90
23731;DHT22;12046;44.702;10.622;2022-11-03T02:36:40;15.20;99.90
23731;DHT22;12046;44.702;10.622;2022-11-03T02:39:19;15.20;99.90
23731;DHT22;12046;44.702;10.622;2022-11-03T02:41:49;15.30;99.90
23731;DHT22;12046;44.702;10.622;2022-11-03T02:44:21;15.20;99.90
23731;DHT22;12046;44.702;10.622;2022-11-03T02:46:50;15.30;99.90
23731;DHT22;12046;44.702;10.622;2022-11-03T02:49:19;15.30;99.90
23731;DHT22;12046;44.702;10.622;2022-11-03T02:51:45;15.30;99.90
23731;DHT22;12046;44.702;10.622;2022-11-03T02:56:48;15.30;99.90
23731;DHT22;12046;44.702;10.622;2022-11-03T02:59:18;15.30;99.90
23731;DHT22;12046;44.702;10.622;2022-11-03T03:01:55;15.30;99.90
23731;DHT22;12046;44.702;10.622;2022-11-03T03:04:29;15.30;99.90
23731;DHT22;12046;44.702;10.622;2022-11-03T03:07:00;15.30;99.90
23731;DHT22;12046;44.702;10.622;2022-11-03T03:09:31;15.30;99.90
23731;DHT22;12046;44.702;10.622;2022-11-03T03:11:59;15.30;99.90
23731;DHT22;12046;44.702;10.622;2022-11-03T03:14:37;15.30;99.90
23731;DHT22;12046;44.702;10.622;2022-11-03T03:20:00;15.30;99.90
23731;DHT22;12046;44.702;10.622;2022-11-03T03:23:13;15.30;99.90
23731;DHT22;12046;44.702;10.622;2022-11-03T03:25:46;15.30;99.90
23731;DHT22;12046;44.702;10.622;2022-11-03T03:28:18;15.30;99.90
23731;DHT22;12046;44.702;10.622;2022-11-03T03:30:45;15.30;99.90
23731;DHT22;12046;44.702;10.622;2022-11-03T03:33:14;15.30;99.90
23731;DHT22;12046;44.702;10.622;2022-11-03T03:35:43;15.30;99.90
23731;DHT22;12046;44.702;10.622;2022-11-03T03:38:15;15.30;99.90
23731;DHT22;12046;44.702;10.622;2022-11-03T03:47:50;15.40;99.90
23731;DHT22;12046;44.702;10.622;2022-11-03T03:50:16;15.40;99.90
23731;DHT22;12046;44.702;10.622;2022-11-03T03:52:42;15.40;99.90
23731;DHT22;12046;44.702;10.622;2022-11-03T03:55:16;15.40;99.90
23731;DHT22;12046;44.702;10.622;2022-11-03T03:57:43;15.40;99.90
23731;DHT22;12046;44.702;10.622;2022-11-03T04:00:13;15.40;99.90
23731;DHT22;12046;44.702;10.622;2022-11-03T04:09:44;15.40;99.90
23731;DHT22;12046;44.702;10.622;2022-11-03T04:12:10;15.40;99.90
23731;DHT22;12046;44.702;10.622;2022-11-03T04:14:54;15.40;99.90
23731;DHT22;12046;44.702;10.622;2022-11-03T04:17:43;15.40;99.90
23731;DHT22;12046;44.702;10.622;2022-11-03T04:20:30;15.30;99.90
23731;DHT22;12046;44.702;10.622;2022-11-03T04:23:15;15.30;99.90
23731;DHT22;12046;44.702;10.622;2022-11-03T04:25:45;15.30;99.90
23731;DHT22;12046;44.702;10.622;2022-11-03T04:28:13;15.40;99.90
23731;DHT22;12046;44.702;10.622;2022-11-03T04:30:40;15.30;99.90
23731;DHT22;12046;44.702;10.622;2022-11-03T04:33:25;15.30;99.90
23731;DHT22;12046;44.702;10.622;2022-11-03T04:35:52;15.30;99.90
23731;DHT22;12046;44.702;10.622;2022-11-03T04:38:21;15.30;99.90
23731;DHT22;12046;44.702;10.622;2022-11-03T04:40:56;15.30;99.90
23731;DHT22;12046;44.702;10.622;2022-11-03T04:43:33;15.30;99.90
23731;DHT22;12046;44.702;10.622;2022-11-03T04:45:59;15.30;99.90
23731;DHT22;12046;44.702;10.622;2022-11-03T04:48:26;15.30;99.90
23731;DHT22;12046;44.702;10.622;2022-11-03T04:50:56;15.30;99.90
23731;DHT22;12046;44.702;10.622;2022-11-03T04:53:23;15.40;99.90
23731;DHT22;12046;44.702;10.622;2022-11-03T04:55:53;15.30;99.90
23731;DHT22;12046;44.702;10.622;2022-11-03T04:58:21;15.30;99.90
23731;DHT22;12046;44.702;10.622;2022-11-03T05:01:16;15.30;99.90
23731;DHT22;12046;44.702;10.622;2022-11-03T05:03:48;15.30;99.90
23731;DHT22;12046;44.702;10.622;2022-11-03T05:06:21;15.30;99.90
23731;DHT22;12046;44.702;10.622;2022-11-03T05:08:51;15.30;99.90
23731;DHT22;12046;44.702;10.622;2022-11-03T05:11:26;15.30;99.90
23731;DHT22;12046;44.702;10.622;2022-11-03T05:13:58;15.30;99.90
23731;DHT22;12046;44.702;10.622;2022-11-03T05:16:25;15.30;99.90
23731;DHT22;12046;44.702;10.622;2022-11-03T05:18:51;15.20;99.90
23731;DHT22;12046;44.702;10.622;2022-11-03T05:21:20;15.30;99.90
23731;DHT22;12046;44.702;10.622;2022-11-03T05:23:52;15.30;99.90
23731;DHT22;12046;44.702;10.622;2022-11-03T05:26:25;15.30;99.90
23731;DHT22;12046;44.702;10.622;2022-11-03T05:32:15;15.30;99.90
23731;DHT22;12046;44.702;10.622;2022-11-03T05:34:46;15.30;99.90
23731;DHT22;12046;44.702;10.622;2022-11-03T05:39:50;15.30;99.90
23731;DHT22;12046;44.702;10.622;2022-11-03T05:42:34;15.30;99.90
23731;DHT22;12046;44.702;10.622;2022-11-03T05:45:15;15.30;99.90
23731;DHT22;12046;44.702;10.622;2022-11-03T05:47:45;15.30;99.90
23731;DHT22;12046;44.702;10.622;2022-11-03T05:50:22;15.30;99.90
23731;DHT22;12046;44.702;10.622;2022-11-03T05:53:05;15.30;99.90
23731;DHT22;12046;44.702;10.622;2022-11-03T05:55:36;15.30;99.90
23731;DHT22;12046;44.702;10.622;2022-11-03T05:58:38;15.30;99.90
23731;DHT22;12046;44.702;10.622;2022-11-03T06:01:30;15.30;99.90
23731;DHT22;12046;44.702;10.622;2022-11-03T06:06:41;15.20;99.90
23731;DHT22;12046;44.702;10.622;2022-11-03T06:09:17;15.20;99.90
23731;DHT22;12046;44.702;10.622;2022-11-03T06:11:44;15.20;99.90
23731;DHT22;12046;44.702;10.622;2022-11-03T06:14:29;15.20;99.90
23731;DHT22;12046;44.702;10.622;2022-11-03T06:17:01;15.20;99.90
23731;DHT22;12046;44.702;10.622;2022-11-03T06:19:37;15.20;99.90
23731;DHT22;12046;44.702;10.622;2022-11-03T06:22:21;15.10;99.90
23731;DHT22;12046;44.702;10.622;2022-11-03T06:24:50;15.10;99.90
23731;DHT22;12046;44.702;10.622;2022-11-03T06:27:21;15.10;99.90
23731;DHT22;12046;44.702;10.622;2022-11-03T06:30:00;15.20;99.90
23731;DHT22;12046;44.702;10.622;2022-11-03T06:32:27;15.10;99.90
23731;DHT22;12046;44.702;10.622;2022-11-03T06:34:55;15.00;99.90
23731;DHT22;12046;44.702;10.622;2022-11-03T06:37:30;15.00;99.90
23731;DHT22;12046;44.702;10.622;2022-11-03T06:40:00;14.90;99.90
23731;DHT22;12046;44.702;10.622;2022-11-03T06:42:30;14.90;99.90
23731;DHT22;12046;44.702;10.622;2022-11-03T06:44:59;14.90;99.90
23731;DHT22;12046;44.702;10.622;2022-11-03T06:47:59;14.90;99.90
23731;DHT22;12046;44.702;10.622;2022-11-03T06:50:51;14.90;99.90
23731;DHT22;12046;44.702;10.622;2022-11-03T06:53:23;14.90;99.90
23731;DHT22;12046;44.702;10.622;2022-11-03T06:58:48;14.90;99.90
23731;DHT22;12046;44.702;10.622;2022-11-03T07:30:37;14.90;99.90
23731;DHT22;12046;44.702;10.622;2022-11-03T07:33:21;15.00;99.90
23731;DHT22;12046;44.702;10.622;2022-11-03T07:39:49;14.90;99.90
23731;DHT22;12046;44.702;10.622;2022-11-03T07:42:30;14.90;99.90
23731;DHT22;12046;44.702;10.622;2022-11-03T07:49:07;15.00;99.90
23731;DHT22;12046;44.702;10.622;2022-11-03T07:52:03;15.00;99.90
23731;DHT22;12046;44.702;10.622;2022-11-03T07:55:10;15.00;99.90
23731;DHT22;12046;44.702;10.622;2022-11-03T07:57:38;15.00;99.90
23731;DHT22;12046;44.702;10.622;2022-11-03T08:00:29;15.00;99.90
23731;DHT22;12046;44.702;10.622;2022-11-03T08:06:34;15.00;99.90
23731;DHT22;12046;44.702;10.622;2022-11-03T08:12:32;14.90;99.90
23731;DHT22;12046;44.702;10.622;2022-11-03T08:15:04;14.90;99.90
23731;DHT22;12046;44.702;10.622;2022-11-03T08:17:30;14.90;99.90
23731;DHT22;12046;44.702;10.622;2022-11-03T08:19:56;14.90;99.90
23731;DHT22;12046;44.702;10.622;2022-11-03T08:22:22;14.90;99.90
23731;DHT22;12046;44.702;10.622;2022-11-03T08:24:51;15.00;99.90
23731;DHT22;12046;44.702;10.622;2022-11-03T08:27:17;15.00;99.90
23731;DHT22;12046;44.702;10.622;2022-11-03T08:29:44;15.00;99.90
23731;DHT22;12046;44.702;10.622;2022-11-03T08:32:13;15.00;99.90
23731;DHT22;12046;44.702;10.622;2022-11-03T08:35:33;15.00;99.90
23731;DHT22;12046;44.702;10.622;2022-11-03T08:38:11;15.00;99.90
23731;DHT22;12046;44.702;10.622;2022-11-03T08:40:44;15.00;99.90
23731;DHT22;12046;44.702;10.622;2022-11-03T08:43:10;15.10;99.90
23731;DHT22;12046;44.702;10.622;2022-11-03T08:45:36;15.10;99.90
23731;DHT22;12046;44.702;10.622;2022-11-03T08:48:02;15.10;99.90
23731;DHT22;12046;44.702;10.622;2022-11-03T08:50:28;15.10;99.90
23731;DHT22;12046;44.702;10.622;2022-11-03T08:52:54;15.10;99.90
23731;DHT22;12046;44.702;10.622;2022-11-03T08:55:20;15.00;99.90
23731;DHT22;12046;44.702;10.622;2022-11-03T08:57:46;15.00;99.90
23731;DHT22;12046;44.702;10.622;2022-11-03T09:00:13;15.00;99.90
23731;DHT22;12046;44.702;10.622;2022-11-03T09:02:42;15.00;99.90
23731;DHT22;12046;44.702;10.622;2022-11-03T09:05:09;15.00;99.90
23731;DHT22;12046;44.702;10.622;2022-11-03T09:07:35;15.10;99.90
23731;DHT22;12046;44.702;10.622;2022-11-03T09:10:01;15.10;99.90
23731;DHT22;12046;44.702;10.622;2022-11-03T09:12:27;15.20;99.90
23731;DHT22;12046;44.702;10.622;2022-11-03T09:14:53;15.20;99.90
23731;DHT22;12046;44.702;10.622;2022-11-03T09:17:18;15.30;99.90
23731;DHT22;12046;44.702;10.622;2022-11-03T09:19:44;15.20;99.90
23731;DHT22;12046;44.702;10.622;2022-11-03T09:22:10;15.30;99.90
23731;DHT22;12046;44.702;10.622;2022-11-03T09:24:36;15.20;99.90
23731;DHT22;12046;44.702;10.622;2022-11-03T09:27:03;15.30;99.90
23731;DHT22;12046;44.702;10.622;2022-11-03T09:29:29;15.30;99.90
23731;DHT22;12046;44.702;10.622;2022-11-03T09:31:55;15.30;99.90
23731;DHT22;12046;44.702;10.622;2022-11-03T09:34:21;15.30;99.90
23731;DHT22;12046;44.702;10.622;2022-11-03T09:36:51;15.40;99.90
23731;DHT22;12046;44.702;10.622;2022-11-03T09:39:17;15.40;99.90
23731;DHT22;12046;44.702;10.622;2022-11-03T09:41:43;15.60;99.90
23731;DHT22;12046;44.702;10.622;2022-11-03T09:44:10;15.60;99.90
23731;DHT22;12046;44.702;10.622;2022-11-03T09:46:36;15.70;99.90
23731;DHT22;12046;44.702;10.622;2022-11-03T09:49:03;15.70;99.90
23731;DHT22;12046;44.702;10.622;2022-11-03T09:51:30;15.80;99.90
23731;DHT22;12046;44.702;10.622;2022-11-03T09:54:00;15.80;99.90
23731;DHT22;12046;44.702;10.622;2022-11-03T09:56:30;15.90;99.90
23731;DHT22;12046;44.702;10.622;2022-11-03T09:58:56;16.00;99.90
23731;DHT22;12046;44.702;10.622;2022-11-03T10:01:24;16.00;99.90
23731;DHT22;12046;44.702;10.622;2022-11-03T10:03:50;16.20;99.90
23731;DHT22;12046;44.702;10.622;2022-11-03T10:06:16;16.40;99.90
23731;DHT22;12046;44.702;10.622;2022-11-03T10:08:43;16.60;99.90
23731;DHT22;12046;44.702;10.622;2022-11-03T10:11:11;16.80;99.90
23731;DHT22;12046;44.702;10.622;2022-11-03T10:13:38;16.90;99.90
23731;DHT22;12046;44.702;10.622;2022-11-03T10:16:09;17.10;99.90
23731;DHT22;12046;44.702;10.622;2022-11-03T10:18:36;17.20;99.90
23731;DHT22;12046;44.702;10.622;2022-11-03T10:21:14;17.30;99.90
23731;DHT22;12046;44.702;10.622;2022-11-03T10:23:41;17.20;99.90
23731;DHT22;12046;44.702;10.622;2022-11-03T10:26:13;17.20;99.90
23731;DHT22;12046;44.702;10.622;2022-11-03T10:29:02;17.10;99.90
23731;DHT22;12046;44.702;10.622;2022-11-03T10:34:03;16.80;99.90
23731;DHT22;12046;44.702;10.622;2022-11-03T10:36:31;16.70;99.90
23731;DHT22;12046;44.702;10.622;2022-11-03T10:39:29;16.70;99.90
23731;DHT22;12046;44.702;10.622;2022-11-03T10:41:58;16.80;99.90
23731;DHT22;12046;44.702;10.622;2022-11-03T10:48:19;16.80;99.90
23731;DHT22;12046;44.702;10.622;2022-11-03T10:50:45;16.80;99.90
23731;DHT22;12046;44.702;10.622;2022-11-03T10:53:19;16.80;99.90
23731;DHT22;12046;44.702;10.622;2022-11-03T10:55:45;16.90;99.90
23731;DHT22;12046;44.702;10.622;2022-11-03T10:58:11;17.00;99.90
23731;DHT22;12046;44.702;10.622;2022-11-03T11:00:41;17.20;99.90
23731;DHT22;12046;44.702;10.622;2022-11-03T11:03:59;17.20;99.90
23731;DHT22;12046;44.702;10.622;2022-11-03T11:06:20;17.40;99.90
23731;DHT22;12046;44.702;10.622;2022-11-03T11:17:04;17.30;99.90
23731;DHT22;12046;44.702;10.622;2022-11-03T11:22:54;17.10;99.90
23731;DHT22;12046;44.702;10.622;2022-11-03T11:31:40;17.20;99.90
23731;DHT22;12046;44.702;10.622;2022-11-03T11:37:40;17.30;99.90
23731;DHT22;12046;44.702;10.622;2022-11-03T11:51:41;18.10;99.90
23731;DHT22;12046;44.702;10.622;2022-11-03T11:54:18;18.30;99.90
23731;DHT22;12046;44.702;10.622;2022-11-03T11:56:46;18.40;99.90
23731;DHT22;12046;44.702;10.622;2022-11-03T11:59:23;18.50;99.90
23731;DHT22;12046;44.702;10.622;2022-11-03T12:01:51;18.60;99.90
23731;DHT22;12046;44.702;10.622;2022-11-03T12:07:45;19.00;99.90
23731;DHT22;12046;44.702;10.622;2022-11-03T12:10:34;19.00;99.90
23731;DHT22;12046;44.702;10.622;2022-11-03T12:13:00;18.80;99.90
23731;DHT22;12046;44.702;10.622;2022-11-03T12:16:00;18.60;99.90
23731;DHT22;12046;44.702;10.622;2022-11-03T12:18:49;18.30;99.90
23731;DHT22;12046;44.702;10.622;2022-11-03T12:28:29;18.10;99.90
23731;DHT22;12046;44.702;10.622;2022-11-03T12:34:53;18.00;99.90
23731;DHT22;12046;44.702;10.622;2022-11-03T12:41:38;18.00;99.90
23731;DHT22;12046;44.702;10.622;2022-11-03T12:44:04;17.90;99.90
23731;DHT22;12046;44.702;10.622;2022-11-03T12:46:30;18.00;99.90
23731;DHT22;12046;44.702;10.622;2022-11-03T12:48:56;18.00;99.90
23731;DHT22;12046;44.702;10.622;2022-11-03T12:51:24;18.20;99.90
23731;DHT22;12046;44.702;10.622;2022-11-03T12:53:50;18.30;99.90
23731;DHT22;12046;44.702;10.622;2022-11-03T12:56:21;18.50;99.90
23731;DHT22;12046;44.702;10.622;2022-11-03T13:02:46;18.80;99.90
23731;DHT22;12046;44.702;10.622;2022-11-03T13:21:58;20.40;99.90
23731;DHT22;12046;44.702;10.622;2022-11-03T13:24:24;20.70;99.90
23731;DHT22;12046;44.702;10.622;2022-11-03T13:26:50;20.90;99.90
23731;DHT22;12046;44.702;10.622;2022-11-03T13:29:16;21.40;99.90
23731;DHT22;12046;44.702;10.622;2022-11-03T13:31:42;21.80;99.90
23731;DHT22;12046;44.702;10.622;2022-11-03T13:34:08;21.90;99.90
23731;DHT22;12046;44.702;10.622;2022-11-03T13:36:34;21.80;99.90
23731;DHT22;12046;44.702;10.622;2022-11-03T13:39:00;21.60;99.90
23731;DHT22;12046;44.702;10.622;2022-11-03T13:41:26;21.20;99.90
23731;DHT22;12046;44.702;10.622;2022-11-03T13:43:52;21.00;99.90
23731;DHT22;12046;44.702;10.622;2022-11-03T13:46:19;21.10;99.90
23731;DHT22;12046;44.702;10.622;2022-11-03T13:48:45;21.40;99.90
23731;DHT22;12046;44.702;10.622;2022-11-03T13:51:11;21.60;99.90
23731;DHT22;12046;44.702;10.622;2022-11-03T13:53:56;21.60;99.90
23731;DHT22;12046;44.702;10.622;2022-11-03T13:56:26;21.60;99.90
23731;DHT22;12046;44.702;10.622;2022-11-03T13:59:00;21.60;99.90
23731;DHT22;12046;44.702;10.622;2022-11-03T14:01:26;21.70;99.90
23731;DHT22;12046;44.702;10.622;2022-11-03T14:03:52;21.80;99.90
23731;DHT22;12046;44.702;10.622;2022-11-03T14:06:18;22.00;99.90
23731;DHT22;12046;44.702;10.622;2022-11-03T14:08:44;22.10;99.90
23731;DHT22;12046;44.702;10.622;2022-11-03T14:11:10;21.90;99.90
23731;DHT22;12046;44.702;10.622;2022-11-03T14:13:55;21.60;99.90
23731;DHT22;12046;44.702;10.622;2022-11-03T14:16:21;21.10;99.90
23731;DHT22;12046;44.702;10.622;2022-11-03T14:18:47;20.80;99.90
23731;DHT22;12046;44.702;10.622;2022-11-03T14:21:17;20.50;99.90
23731;DHT22;12046;44.702;10.622;2022-11-03T14:23:43;20.30;99.90
23731;DHT22;12046;44.702;10.622;2022-11-03T14:26:14;20.00;99.90
23731;DHT22;12046;44.702;10.622;2022-11-03T14:29:03;19.90;99.90
23731;DHT22;12046;44.702;10.622;2022-11-03T14:34:46;19.70;99.90
23731;DHT22;12046;44.702;10.622;2022-11-03T14:37:27;19.60;99.90
23731;DHT22;12046;44.702;10.622;2022-11-03T14:39:57;19.30;99.90
23731;DHT22;12046;44.702;10.622;2022-11-03T14:46:08;18.80;99.90
23731;DHT22;12046;44.702;10.622;2022-11-03T14:49:02;18.50;99.90
23731;DHT22;12046;44.702;10.622;2022-11-03T14:54:43;18.30;99.90
23731;DHT22;12046;44.702;10.622;2022-11-03T14:57:43;18.20;99.90
23731;DHT22;12046;44.702;10.622;2022-11-03T15:03:59;18.00;99.90
23731;DHT22;12046;44.702;10.622;2022-11-03T15:06:35;18.00;99.90
23731;DHT22;12046;44.702;10.622;2022-11-03T15:09:14;17.90;99.90
23731;DHT22;12046;44.702;10.622;2022-11-03T15:15:42;17.80;99.90
23731;DHT22;12046;44.702;10.622;2022-11-03T15:28:09;17.60;99.90
23731;DHT22;12046;44.702;10.622;2022-11-03T15:30:40;17.60;99.90
23731;DHT22;12046;44.702;10.622;2022-11-03T15:33:15;17.50;99.90
23731;DHT22;12046;44.702;10.622;2022-11-03T15:35:56;17.50;99.90
23731;DHT22;12046;44.702;10.622;2022-11-03T15:52:17;17.20;99.90
23731;DHT22;12046;44.702;10.622;2022-11-03T15:58:00;17.20;99.90
23731;DHT22;12046;44.702;10.622;2022-11-03T16:04:47;17.10;99.90
23731;DHT22;12046;44.702;10.622;2022-11-03T16:07:13;17.00;99.90
23731;DHT22;12046;44.702;10.622;2022-11-03T16:09:39;17.00;99.90
23731;DHT22;12046;44.702;10.622;2022-11-03T16:12:06;17.00;99.90
23731;DHT22;12046;44.702;10.622;2022-11-03T16:14:44;16.90;99.90
23731;DHT22;12046;44.702;10.622;2022-11-03T16:17:10;16.90;99.90
23731;DHT22;12046;44.702;10.622;2022-11-03T16:19:36;16.90;99.90
23731;DHT22;12046;44.702;10.622;2022-11-03T16:22:02;16.80;99.90
23731;DHT22;12046;44.702;10.622;2022-11-03T16:43:35;16.70;99.90
23731;DHT22;12046;44.702;10.622;2022-11-03T16:46:10;16.60;99.90
23731;DHT22;12046;44.702;10.622;2022-11-03T16:48:36;16.60;99.90
23731;DHT22;12046;44.702;10.622;2022-11-03T16:51:03;16.60;99.90
23731;DHT22;12046;44.702;10.622;2022-11-03T16:53:33;16.60;99.90
23731;DHT22;12046;44.702;10.622;2022-11-03T17:11:49;16.60;99.90
23731;DHT22;12046;44.702;10.622;2022-11-03T17:33:29;16.50;99.90
23731;DHT22;12046;44.702;10.622;2022-11-03T17:35:55;16.50;99.90
23731;DHT22;12046;44.702;10.622;2022-11-03T17:38:22;16.50;99.90
23731;DHT22;12046;44.702;10.622;2022-11-03T17:40:49;16.50;99.90
23731;DHT22;12046;44.702;10.622;2022-11-03T17:43:22;16.50;99.90
23731;DHT22;12046;44.702;10.622;2022-11-03T17:45:49;16.40;99.90
23731;DHT22;12046;44.702;10.622;2022-11-03T17:48:19;16.40;99.90
23731;DHT22;12046;44.702;10.622;2022-11-03T17:51:05;16.40;99.90
23731;DHT22;12046;44.702;10.622;2022-11-03T17:53:51;16.40;99.90
23731;DHT22;12046;44.702;10.622;2022-11-03T17:56:22;16.40;99.90
23731;DHT22;12046;44.702;10.622;2022-11-03T17:58:59;16.40;99.90
23731;DHT22;12046;44.702;10.622;2022-11-03T18:01:25;16.40;99.90
23731;DHT22;12046;44.702;10.622;2022-11-03T18:04:01;16.40;99.90
23731;DHT22;12046;44.702;10.622;2022-11-03T18:06:36;16.40;99.90
23731;DHT22;12046;44.702;10.622;2022-11-03T18:09:02;16.30;99.90
23731;DHT22;12046;44.702;10.622;2022-11-03T18:11:29;16.30;99.90
23731;DHT22;12046;44.702;10.622;2022-11-03T18:14:44;16.30;99.90
23731;DHT22;12046;44.702;10.622;2022-11-03T18:24:17;16.10;99.90
23731;DHT22;12046;44.702;10.622;2022-11-03T18:26:46;16.20;99.90
23731;DHT22;12046;44.702;10.622;2022-11-03T18:29:13;16.10;99.90
23731;DHT22;12046;44.702;10.622;2022-11-03T18:31:45;16.10;99.90
23731;DHT22;12046;44.702;10.622;2022-11-03T18:34:20;16.10;99.90
23731;DHT22;12046;44.702;10.622;2022-11-03T18:36:47;16.10;99.90
23731;DHT22;12046;44.702;10.622;2022-11-03T18:39:31;16.10;99.90
23731;DHT22;12046;44.702;10.622;2022-11-03T18:41:57;16.00;99.90
23731;DHT22;12046;44.702;10.622;2022-11-03T18:44:25;16.00;99.90
23731;DHT22;12046;44.702;10.622;2022-11-03T18:46:55;16.00;99.90
23731;DHT22;12046;44.702;10.622;2022-11-03T18:49:22;16.00;99.90
23731;DHT22;12046;44.702;10.622;2022-11-03T18:51:54;16.00;99.90
23731;DHT22;12046;44.702;10.622;2022-11-03T18:54:22;16.00;99.90
23731;DHT22;12046;44.702;10.622;2022-11-03T18:56:50;16.00;99.90
23731;DHT22;12046;44.702;10.622;2022-11-03T18:59:28;16.00;99.90
23731;DHT22;12046;44.702;10.622;2022-11-03T19:01:56;16.00;99.90
23731;DHT22;12046;44.702;10.622;2022-11-03T19:04:23;15.90;99.90
23731;DHT22;12046;44.702;10.622;2022-11-03T19:06:50;15.90;99.90
23731;DHT22;12046;44.702;10.622;2022-11-03T19:09:19;15.90;99.90
23731;DHT22;12046;44.702;10.622;2022-11-03T19:11:47;15.90;99.90
23731;DHT22;12046;44.702;10.622;2022-11-03T19:14:31;16.00;99.90
23731;DHT22;12046;44.702;10.622;2022-11-03T19:17:00;16.00;99.90
23731;DHT22;12046;44.702;10.622;2022-11-03T19:19:28;15.90;99.90
23731;DHT22;12046;44.702;10.622;2022-11-03T19:21:57;15.90;99.90
23731;DHT22;12046;44.702;10.622;2022-11-03T19:24:23;15.90;99.90
23731;DHT22;12046;44.702;10.622;2022-11-03T19:27:00;15.90;99.90
23731;DHT22;12046;44.702;10.622;2022-11-03T19:29:30;15.90;99.90
23731;DHT22;12046;44.702;10.622;2022-11-03T19:32:00;15.90;99.90
23731;DHT22;12046;44.702;10.622;2022-11-03T19:34:37;15.90;99.90
23731;DHT22;12046;44.702;10.622;2022-11-03T19:37:08;15.90;99.90
23731;DHT22;12046;44.702;10.622;2022-11-03T19:39:39;15.90;99.90
23731;DHT22;12046;44.702;10.622;2022-11-03T19:42:14;15.90;99.90
23731;DHT22;12046;44.702;10.622;2022-11-03T19:45:21;15.80;99.90
23731;DHT22;12046;44.702;10.622;2022-11-03T19:48:11;15.80;99.90
23731;DHT22;12046;44.702;10.622;2022-11-03T20:01:34;15.90;99.90
23731;DHT22;12046;44.702;10.622;2022-11-03T20:04:00;15.80;99.90
23731;DHT22;12046;44.702;10.622;2022-11-03T20:06:26;15.80;99.90
23731;DHT22;12046;44.702;10.622;2022-11-03T20:08:53;15.80;99.90
23731;DHT22;12046;44.702;10.622;2022-11-03T20:11:19;15.80;99.90
23731;DHT22;12046;44.702;10.622;2022-11-03T20:16:30;15.80;99.90
23731;DHT22;12046;44.702;10.622;2022-11-03T20:41:31;15.80;99.90
23731;DHT22;12046;44.702;10.622;2022-11-03T20:43:57;15.70;99.90
23731;DHT22;12046;44.702;10.622;2022-11-03T20:46:29;15.70;99.90
23731;DHT22;12046;44.702;10.622;2022-11-03T20:48:57;15.70;99.90
23731;DHT22;12046;44.702;10.622;2022-11-03T20:51:35;15.70;99.90
23731;DHT22;12046;44.702;10.622;2022-11-03T20:54:02;15.70;99.90
23731;DHT22;12046;44.702;10.622;2022-11-03T20:56:29;15.70;99.90
23731;DHT22;12046;44.702;10.622;2022-11-03T20:58:55;15.70;99.90
23731;DHT22;12046;44.702;10.622;2022-11-03T21:01:24;15.70;99.90
23731;DHT22;12046;44.702;10.622;2022-11-03T21:03:51;15.70;99.90